createdAt,value
2019-02-21T00:26:35.138Z,6.60
2019-02-21T00:30:41.758Z,5.60
2019-02-21T00:35:09.574Z,5.87
2019-02-21T01:39:05.108Z,19.30
2019-02-21T01:43:12.063Z,20.03
2019-02-21T01:47:39.115Z,19.73
2019-02-21T01:51:45.486Z,20.47
2019-02-21T02:00:02.611Z,19.37
2019-02-21T02:04:09.863Z,18.33
2019-02-21T02:08:38.481Z,19.43
2019-02-21T03:41:33.934Z,19.90
2019-02-21T04:18:41.847Z,21.03
2019-02-21T04:51:39.045Z,25.20
2019-02-21T04:55:48.649Z,26.20
2019-02-21T06:01:54.873Z,29.73
2019-02-21T06:06:22.564Z,29.40
2019-02-21T06:15:30.603Z,29.30
2019-02-21T06:39:50.568Z,33.27
2019-02-21T06:43:58.893Z,37.43
2019-02-21T06:48:07.316Z,35.00
2019-02-21T06:52:15.609Z,38.30
2019-02-21T07:06:31.437Z,38.53
2019-02-21T07:15:02.500Z,38.20
2019-02-21T07:19:11.005Z,38.90
2019-02-21T07:23:26.208Z,39.83
2019-02-21T07:37:43.405Z,41.80
2019-02-21T07:56:05.263Z,43.67
2019-02-21T08:00:12.332Z,40.87
2019-02-21T08:42:40.396Z,37.40
2019-02-21T08:46:47.380Z,39.87
2019-02-21T08:51:14.868Z,40.83
2019-02-21T08:55:24.521Z,38.57
2019-02-21T08:59:33.648Z,36.30
2019-02-21T09:03:41.055Z,36.23
2019-02-21T09:07:47.817Z,38.00
2019-02-21T09:11:55.712Z,38.47
2019-02-21T09:16:03.044Z,41.67
2019-02-21T09:20:13.990Z,40.90
2019-02-21T09:24:37.402Z,42.37
2019-02-21T09:28:29.666Z,38.27
2019-02-21T09:32:37.407Z,38.70
2019-02-21T09:36:45.049Z,39.73
2019-02-21T09:40:58.277Z,40.50
2019-02-21T09:45:11.176Z,41.57
2019-02-21T09:49:22.221Z,37.93
2019-02-21T09:53:28.610Z,41.67
2019-02-21T09:57:37.955Z,41.63
2019-02-21T10:01:44.415Z,40.53
2019-02-21T11:05:58.824Z,41.20
2019-02-21T11:10:08.691Z,38.57
2019-02-21T11:14:18.522Z,40.00
2019-02-21T11:18:26.633Z,31.73
2019-02-21T11:47:13.646Z,35.20
2019-02-21T11:51:24.808Z,38.50
2019-02-21T12:10:38.342Z,31.67
2019-02-21T12:24:29.727Z,35.40
2019-02-21T12:28:36.242Z,33.17
2019-02-21T12:32:46.865Z,33.70
2019-02-21T12:36:54.685Z,33.03
2019-02-21T12:41:02.768Z,36.10
2019-02-21T12:45:30.055Z,33.03
2019-02-21T12:49:41.651Z,33.03
2019-02-21T12:54:13.165Z,35.13
2019-02-21T12:58:18.040Z,32.27
2019-02-21T13:02:24.743Z,28.37
2019-02-21T13:06:33.272Z,29.73
2019-02-21T13:10:43.663Z,25.77
2019-02-21T13:14:50.363Z,33.30
2019-02-21T13:18:56.996Z,29.23
2019-02-21T13:23:05.416Z,30.47
2019-02-21T13:37:12.964Z,31.67
2019-02-21T13:41:23.493Z,28.53
2019-02-21T13:45:31.098Z,30.00
2019-02-21T13:49:44.283Z,29.00
2019-02-21T13:53:52.324Z,32.53
2019-02-21T13:57:58.427Z,28.67
2019-02-21T14:21:03.103Z,17.63
2019-02-21T14:25:18.484Z,15.40
2019-02-21T14:29:25.090Z,11.97
2019-02-21T14:33:32.439Z,18.00
2019-02-21T14:38:00.243Z,17.20
2019-02-21T14:51:24.149Z,17.77
2019-02-21T14:55:30.964Z,21.30
2019-02-21T14:59:40.584Z,21.73
2019-02-21T15:03:50.867Z,20.13
2019-02-21T15:41:30.746Z,32.57
2019-02-21T15:54:56.671Z,30.87
2019-02-21T15:59:03.190Z,31.33
2019-02-21T16:03:15.259Z,32.77
2019-02-21T16:07:21.967Z,31.97
2019-02-21T16:11:31.821Z,35.03
2019-02-21T16:15:39.226Z,32.87
2019-02-21T16:23:52.481Z,32.80
2019-02-21T16:28:02.370Z,30.30
2019-02-21T16:32:11.273Z,32.57
2019-02-21T16:36:22.325Z,37.80
2019-02-21T16:40:31.095Z,32.77
2019-02-21T16:44:44.346Z,33.13
2019-02-21T16:48:52.642Z,19.77
2019-02-21T17:07:13.286Z,18.23
2019-02-21T17:16:16.108Z,21.23
2019-02-21T17:24:36.669Z,20.27
2019-02-21T17:28:43.272Z,23.07
2019-02-21T17:32:50.211Z,21.53
2019-02-21T17:36:56.897Z,21.27
2019-02-21T17:45:11.884Z,24.83
2019-02-21T17:49:18.620Z,23.90
2019-02-21T17:57:54.738Z,30.77
2019-02-21T18:02:01.299Z,37.47
2019-02-21T18:06:11.215Z,30.63
2019-02-21T18:10:19.158Z,28.80
2019-02-21T18:14:27.912Z,25.63
2019-02-21T18:18:34.882Z,30.60
2019-02-21T18:22:45.561Z,27.27
2019-02-21T18:26:53.185Z,32.20
2019-02-21T18:31:00.465Z,31.37
2019-02-21T18:50:02.696Z,38.43
2019-02-21T18:54:11.317Z,38.40
2019-02-21T18:58:21.541Z,36.60
2019-02-21T19:02:29.612Z,39.23
2019-02-21T19:06:38.791Z,40.97
2019-02-21T19:10:50.144Z,39.73
2019-02-21T19:14:58.626Z,38.27
2019-02-21T19:19:07.723Z,35.90
2019-02-21T19:23:16.539Z,34.20
2019-02-21T19:32:25.673Z,35.73
2019-02-21T19:36:37.319Z,36.20
2019-02-21T19:40:46.451Z,34.70
2019-02-21T19:45:01.219Z,33.83
2019-02-21T20:32:50.270Z,20.43
2019-02-21T20:37:01.920Z,17.67
2019-02-21T20:51:01.677Z,13.67
2019-02-21T21:04:40.045Z,13.70
2019-02-21T21:56:57.280Z,5.90
2019-02-21T22:01:22.220Z,5.80
2019-02-21T23:17:29.830Z,3.70
2019-02-21T23:36:47.807Z,3.23
2019-02-21T23:40:56.782Z,3.70
2019-02-21T23:45:07.864Z,3.10
2019-02-21T23:49:14.751Z,2.40
